Time,TemperatureF,DewpointF,PressureIn,WindDirection,WindDirectionDegrees,WindSpeedMPH,WindSpeedGustMPH,Humidity,HourlyPrecipIn,Conditions,Clouds,dailyrainin,SoftwareType,DateUTC
2013-07-25 00:01:00,71.3,62.6,29.76,SW,236,0.0,2.0,74,0.00,,,0.00,VWS V14.01,2013-07-25 04:01:00,
2013-07-25 00:11:00,71.2,62.9,29.76,North,355,1.0,2.0,75,0.00,,,0.00,VWS V14.01,2013-07-25 04:11:00,
2013-07-25 00:21:00,71.0,62.7,29.76,WSW,248,0.0,3.0,75,0.00,,,0.00,VWS V14.01,2013-07-25 04:21:00,
2013-07-25 00:31:00,70.7,62.8,29.77,SW,219,0.0,2.0,76,0.00,,,0.00,VWS V14.01,2013-07-25 04:31:00,
2013-07-25 00:41:00,70.5,61.8,29.77,NNW,347,1.0,6.0,74,0.00,,,0.00,VWS V14.01,2013-07-25 04:41:00,
2013-07-25 00:51:00,70.4,62.1,29.77,West,275,1.0,3.0,75,0.00,,,0.00,VWS V14.01,2013-07-25 04:51:00,
2013-07-25 01:01:00,70.3,62.4,29.78,West,275,1.0,3.0,76,0.00,,,0.00,VWS V14.01,2013-07-25 05:01:00,
2013-07-25 01:11:00,70.2,62.3,29.78,West,281,1.0,2.0,76,0.00,,,0.00,VWS V14.01,2013-07-25 05:11:00,
2013-07-25 01:21:00,70.0,61.7,29.77,East,100,0.0,2.0,75,0.00,,,0.00,VWS V14.01,2013-07-25 05:21:00,
2013-07-25 01:31:00,69.8,61.9,29.77,ENE,77,1.0,3.0,76,0.00,,,0.00,VWS V14.01,2013-07-25 05:31:00,
2013-07-25 01:41:00,69.6,61.0,29.77,NNE,26,1.0,4.0,74,0.00,,,0.00,VWS V14.01,2013-07-25 05:41:00,
2013-07-25 01:51:00,69.5,61.2,29.77,NNE,26,0.0,3.0,75,0.00,,,0.00,VWS V14.01,2013-07-25 05:51:00,
2013-07-25 02:01:00,69.4,61.9,29.76,NNE,26,1.0,3.0,77,0.00,,,0.00,VWS V14.01,2013-07-25 06:01:00,
2013-07-25 02:11:00,69.2,61.3,29.76,NNE,26,0.0,2.0,76,0.00,,,0.00,VWS V14.01,2013-07-25 06:11:00,
2013-07-25 02:21:00,69.1,61.2,29.76,NNE,26,1.0,3.0,76,0.00,,,0.00,VWS V14.01,2013-07-25 06:21:00,
2013-07-25 02:31:00,69.0,61.1,29.77,NNE,29,0.0,4.0,76,0.00,,,0.00,VWS V14.01,2013-07-25 06:31:00,
2013-07-25 02:41:00,69.0,61.5,29.77,NNE,29,1.0,2.0,77,0.00,,,0.00,VWS V14.01,2013-07-25 06:41:00,
2013-07-25 02:51:00,68.9,61.4,29.77,West,259,1.0,5.0,77,0.00,,,0.00,VWS V14.01,2013-07-25 06:51:00,
2013-07-25 03:01:00,68.8,61.3,29.78,SW,234,1.0,3.0,77,0.00,,,0.00,VWS V14.01,2013-07-25 07:01:00,
2013-07-25 03:11:00,68.8,61.7,29.78,SW,217,1.0,4.0,78,0.00,,,0.00,VWS V14.01,2013-07-25 07:11:00,
2013-07-25 03:21:00,68.8,61.7,29.78,SW,217,0.0,2.0,78,0.00,,,0.00,VWS V14.01,2013-07-25 07:21:00,
2013-07-25 03:31:00,68.7,61.2,29.78,NNW,340,1.0,2.0,77,0.00,,,0.00,VWS V14.01,2013-07-25 07:31:00,
2013-07-25 03:41:00,68.7,61.6,29.78,North,5,0.0,2.0,78,0.00,,,0.00,VWS V14.01,2013-07-25 07:41:00,
2013-07-25 03:51:00,68.6,61.5,29.78,North,5,1.0,2.0,78,0.00,,,0.00,VWS V14.01,2013-07-25 07:51:00,
2013-07-25 04:01:00,68.6,61.1,29.78,NNE,25,1.0,3.0,77,0.00,,,0.00,VWS V14.01,2013-07-25 08:01:00,
2013-07-25 04:11:00,68.5,61.0,29.78,North,11,0.0,3.0,77,0.00,,,0.00,VWS V14.01,2013-07-25 08:11:00,
2013-07-25 04:21:00,68.3,60.5,29.78,NNW,341,0.0,3.0,76,0.00,,,0.00,VWS V14.01,2013-07-25 08:21:00,
2013-07-25 04:31:00,67.9,60.8,29.79,NNE,20,1.0,4.0,78,0.00,,,0.00,VWS V14.01,2013-07-25 08:31:00,
2013-07-25 04:41:00,67.6,60.9,29.79,NE,34,0.0,3.0,79,0.00,,,0.00,VWS V14.01,2013-07-25 08:41:00,
2013-07-25 04:51:00,67.3,60.6,29.79,WSW,244,0.0,4.0,79,0.00,,,0.00,VWS V14.01,2013-07-25 08:51:00,
2013-07-25 05:01:00,67.0,59.6,29.80,NNW,346,1.0,3.0,77,0.00,,,0.00,VWS V14.01,2013-07-25 09:01:00,
2013-07-25 05:11:00,66.6,59.2,29.80,North,360,2.0,4.0,77,0.00,,,0.00,VWS V14.01,2013-07-25 09:11:00,
2013-07-25 05:21:00,66.3,59.6,29.80,WSW,253,0.0,3.0,79,0.00,,,0.00,VWS V14.01,2013-07-25 09:21:00,
2013-07-25 05:31:00,66.0,58.6,29.80,WSW,257,3.0,4.0,77,0.00,,,0.00,VWS V14.01,2013-07-25 09:31:00,
2013-07-25 05:41:00,65.7,57.9,29.80,WSW,246,1.0,4.0,76,0.00,,,0.00,VWS V14.01,2013-07-25 09:41:00,
2013-07-25 05:51:00,65.5,59.5,29.81,NNW,346,1.0,2.0,81,0.00,,,0.00,VWS V14.01,2013-07-25 09:51:00,
2013-07-25 06:01:00,64.8,59.2,29.81,NE,51,1.0,3.0,82,0.00,,,0.00,VWS V14.01,2013-07-25 10:01:00,
2013-07-25 06:11:00,64.4,60.8,29.81,NE,46,0.0,3.0,88,0.02,,,0.02,VWS V14.01,2013-07-25 10:11:00,
2013-07-25 06:21:00,63.7,60.4,29.82,NE,46,0.0,2.0,89,0.03,,,0.03,VWS V14.01,2013-07-25 10:21:00,
2013-07-25 06:31:00,63.0,60.3,29.82,SW,234,0.0,4.0,91,0.03,,,0.03,VWS V14.01,2013-07-25 10:31:00,
2013-07-25 06:41:00,62.7,60.3,29.82,SW,235,1.0,2.0,92,0.03,,,0.03,VWS V14.01,2013-07-25 10:41:00,
2013-07-25 06:51:00,62.5,60.5,29.82,SW,235,1.0,1.0,93,0.03,,,0.03,VWS V14.01,2013-07-25 10:51:00,
2013-07-25 07:01:00,62.3,60.2,29.82,SW,232,0.0,2.0,93,0.03,,,0.03,VWS V14.01,2013-07-25 11:01:00,
2013-07-25 07:11:00,62.3,60.2,29.82,SW,229,1.0,1.0,93,0.03,,,0.03,VWS V14.01,2013-07-25 11:11:00,
2013-07-25 07:21:00,62.2,60.2,29.83,SW,234,1.0,2.0,93,0.01,,,0.03,VWS V14.01,2013-07-25 11:21:00,
2013-07-25 07:31:00,62.1,59.5,29.84,South,169,1.0,2.0,91,0.00,,,0.03,VWS V14.01,2013-07-25 11:31:00,
2013-07-25 07:41:00,62.0,59.7,29.84,WSW,256,1.0,2.0,92,0.00,,,0.03,VWS V14.01,2013-07-25 11:41:00,
2013-07-25 07:51:00,61.8,59.2,29.84,ENE,61,1.0,4.0,91,0.00,,,0.03,VWS V14.01,2013-07-25 11:51:00,
2013-07-25 08:01:00,61.9,59.9,29.85,ENE,61,0.0,2.0,93,0.00,,,0.03,VWS V14.01,2013-07-25 12:01:00,
2013-07-25 08:11:00,61.9,59.5,29.85,ENE,61,0.0,2.0,92,0.00,,,0.03,VWS V14.01,2013-07-25 12:11:00,
2013-07-25 08:21:00,62.0,59.7,29.86,ENE,61,1.0,2.0,92,0.00,,,0.03,VWS V14.01,2013-07-25 12:21:00,
2013-07-25 08:31:00,62.1,59.8,29.86,North,360,1.0,3.0,92,0.00,,,0.03,VWS V14.01,2013-07-25 12:31:00,
2013-07-25 08:41:00,62.1,59.5,29.86,SW,235,2.0,3.0,91,0.00,,,0.03,VWS V14.01,2013-07-25 12:41:00,
2013-07-25 08:51:00,62.1,59.8,29.86,West,260,1.0,4.0,92,0.00,,,0.03,VWS V14.01,2013-07-25 12:51:00,
2013-07-25 09:01:00,62.2,59.5,29.86,WNW,282,1.0,3.0,91,0.00,,,0.03,VWS V14.01,2013-07-25 13:01:00,
2013-07-25 09:11:00,62.3,60.0,29.86,WNW,290,1.0,3.0,92,0.00,,,0.03,VWS V14.01,2013-07-25 13:11:00,
2013-07-25 09:21:00,62.3,59.3,29.87,ENE,61,0.0,3.0,90,0.00,,,0.03,VWS V14.01,2013-07-25 13:21:00,
2013-07-25 09:31:00,62.4,60.0,29.87,NE,49,1.0,3.0,92,0.00,,,0.03,VWS V14.01,2013-07-25 13:31:00,
2013-07-25 09:41:00,62.5,59.5,29.87,West,259,1.0,4.0,90,0.00,,,0.03,VWS V14.01,2013-07-25 13:41:00,
2013-07-25 09:51:00,62.6,59.6,29.87,WSW,254,1.0,3.0,90,0.00,,,0.03,VWS V14.01,2013-07-25 13:51:00,
2013-07-25 10:01:00,62.9,59.6,29.87,North,350,2.0,3.0,89,0.00,,,0.03,VWS V14.01,2013-07-25 14:01:00,
2013-07-25 10:11:00,63.1,59.8,29.87,NW,305,1.0,4.0,89,0.00,,,0.03,VWS V14.01,2013-07-25 14:11:00,
2013-07-25 10:21:00,63.3,59.7,29.88,ENE,59,1.0,3.0,88,0.00,,,0.03,VWS V14.01,2013-07-25 14:21:00,
2013-07-25 10:31:00,63.4,59.5,29.88,NE,47,1.0,3.0,87,0.00,,,0.03,VWS V14.01,2013-07-25 14:31:00,
2013-07-25 10:41:00,63.3,59.7,29.88,NNW,344,1.0,4.0,88,0.00,,,0.03,VWS V14.01,2013-07-25 14:41:00,
2013-07-25 10:51:00,63.2,59.6,29.89,NNE,28,1.0,5.0,88,0.00,,,0.03,VWS V14.01,2013-07-25 14:51:00,
2013-07-25 11:01:00,63.1,59.2,29.89,West,280,1.0,4.0,87,0.00,,,0.03,VWS V14.01,2013-07-25 15:01:00,
2013-07-25 11:11:00,63.1,59.2,29.89,WSW,240,1.0,5.0,87,0.00,,,0.03,VWS V14.01,2013-07-25 15:11:00,
2013-07-25 11:21:00,63.1,59.2,29.89,NNW,333,1.0,5.0,87,0.00,,,0.03,VWS V14.01,2013-07-25 15:21:00,
2013-07-25 11:31:00,63.1,58.8,29.89,West,273,1.0,3.0,86,0.00,,,0.03,VWS V14.01,2013-07-25 15:31:00,
2013-07-25 11:41:00,63.0,59.1,29.89,SW,224,1.0,4.0,87,0.00,,,0.03,VWS V14.01,2013-07-25 15:41:00,
2013-07-25 11:51:00,63.0,59.1,29.89,NE,48,0.0,2.0,87,0.00,,,0.03,VWS V14.01,2013-07-25 15:51:00,
2013-07-25 12:01:00,63.1,59.5,29.90,NE,48,0.0,2.0,88,0.00,,,0.03,VWS V14.01,2013-07-25 16:01:00,
2013-07-25 12:11:00,63.1,59.5,29.90,SSW,200,1.0,3.0,88,0.00,,,0.03,VWS V14.01,2013-07-25 16:11:00,
2013-07-25 12:21:00,63.2,59.6,29.90,NW,322,1.0,5.0,88,0.00,,,0.03,VWS V14.01,2013-07-25 16:21:00,
2013-07-25 12:31:00,63.4,60.1,29.90,North,360,0.0,3.0,89,0.00,,,0.03,VWS V14.01,2013-07-25 16:31:00,
2013-07-25 12:41:00,63.5,59.9,29.90,NE,36,0.0,5.0,88,0.00,,,0.03,VWS V14.01,2013-07-25 16:41:00,
2013-07-25 12:51:00,63.4,59.8,29.90,ESE,115,0.0,3.0,88,0.00,,,0.03,VWS V14.01,2013-07-25 16:51:00,
2013-07-25 13:01:00,63.4,59.5,29.90,ENE,59,2.0,3.0,87,0.00,,,0.03,VWS V14.01,2013-07-25 17:01:00,
2013-07-25 13:11:00,63.7,59.8,29.90,East,82,2.0,4.0,87,0.00,,,0.03,VWS V14.01,2013-07-25 17:11:00,
2013-07-25 13:21:00,64.0,60.1,29.89,ESE,103,1.0,3.0,87,0.00,,,0.03,VWS V14.01,2013-07-25 17:21:00,
2013-07-25 13:31:00,64.5,60.5,29.89,East,87,1.0,3.0,87,0.00,,,0.03,VWS V14.01,2013-07-25 17:31:00,
2013-07-25 13:41:00,64.7,60.8,29.89,East,86,1.0,3.0,87,0.00,,,0.03,VWS V14.01,2013-07-25 17:41:00,
2013-07-25 13:51:00,64.8,60.8,29.89,WNW,291,1.0,6.0,87,0.00,,,0.03,VWS V14.01,2013-07-25 17:51:00,
2013-07-25 14:01:00,64.9,60.6,29.88,NE,51,1.0,4.0,86,0.00,,,0.03,VWS V14.01,2013-07-25 18:01:00,
2013-07-25 14:11:00,65.0,60.4,29.88,WNW,290,0.0,4.0,85,0.00,,,0.03,VWS V14.01,2013-07-25 18:11:00,
2013-07-25 14:21:00,64.8,60.2,29.88,NE,39,1.0,5.0,85,0.00,,,0.03,VWS V14.01,2013-07-25 18:21:00,
2013-07-25 14:31:00,64.7,60.4,29.89,SSW,209,2.0,4.0,86,0.00,,,0.03,VWS V14.01,2013-07-25 18:31:00,
2013-07-25 14:41:00,64.8,60.5,29.89,NW,315,1.0,4.0,86,0.00,,,0.03,VWS V14.01,2013-07-25 18:41:00,
2013-07-25 14:51:00,64.7,60.4,29.89,NNE,29,1.0,3.0,86,0.00,,,0.03,VWS V14.01,2013-07-25 18:51:00,
2013-07-25 15:01:00,64.6,60.7,29.89,NNE,20,2.0,5.0,87,0.00,,,0.03,VWS V14.01,2013-07-25 19:01:00,
2013-07-25 15:11:00,64.5,60.2,29.89,ENE,61,2.0,4.0,86,0.00,,,0.03,VWS V14.01,2013-07-25 19:11:00,
2013-07-25 15:21:00,64.6,61.3,29.90,SW,219,1.0,2.0,89,0.00,,,0.03,VWS V14.01,2013-07-25 19:21:00,
2013-07-25 15:31:00,64.7,61.4,29.90,NE,54,0.0,3.0,89,0.00,,,0.03,VWS V14.01,2013-07-25 19:31:00,
2013-07-25 15:41:00,64.5,61.5,29.90,WNW,295,0.0,4.0,90,0.00,,,0.03,VWS V14.01,2013-07-25 19:41:00,
2013-07-25 15:51:00,64.4,61.7,29.89,North,11,2.0,4.0,91,0.00,,,0.03,VWS V14.01,2013-07-25 19:51:00,
2013-07-25 16:01:00,64.4,62.0,29.89,NW,315,1.0,2.0,92,0.00,,,0.03,VWS V14.01,2013-07-25 20:01:00,
2013-07-25 16:11:00,64.4,62.0,29.89,NW,315,1.0,2.0,92,0.00,,,0.03,VWS V14.01,2013-07-25 20:11:00,
2013-07-25 16:21:00,64.3,62.2,29.89,SSE,161,1.0,3.0,93,0.01,,,0.04,VWS V14.01,2013-07-25 20:21:00,
2013-07-25 16:31:00,64.2,61.8,29.89,NE,34,3.0,5.0,92,0.01,,,0.04,VWS V14.01,2013-07-25 20:31:00,
2013-07-25 16:41:00,64.0,61.9,29.89,ESE,113,0.0,4.0,93,0.01,,,0.04,VWS V14.01,2013-07-25 20:41:00,
2013-07-25 16:51:00,64.0,62.2,29.89,WSW,254,0.0,3.0,94,0.02,,,0.05,VWS V14.01,2013-07-25 20:51:00,
2013-07-25 17:01:00,63.8,62.3,29.88,West,277,1.0,3.0,95,0.02,,,0.05,VWS V14.01,2013-07-25 21:01:00,
2013-07-25 17:11:00,63.7,62.2,29.88,West,275,1.0,2.0,95,0.03,,,0.06,VWS V14.01,2013-07-25 21:11:00,
2013-07-25 17:21:00,63.6,62.4,29.89,West,281,1.0,2.0,96,0.03,,,0.06,VWS V14.01,2013-07-25 21:21:00,
2013-07-25 17:31:00,63.4,62.2,29.89,ESE,102,0.0,2.0,96,0.02,,,0.06,VWS V14.01,2013-07-25 21:31:00,
2013-07-25 17:41:00,63.3,62.1,29.89,West,261,0.0,3.0,96,0.03,,,0.07,VWS V14.01,2013-07-25 21:41:00,
2013-07-25 17:51:00,63.2,62.0,29.89,SSW,203,0.0,2.0,96,0.03,,,0.07,VWS V14.01,2013-07-25 21:51:00,
2013-07-25 18:01:00,63.2,62.0,29.89,SSW,203,0.0,2.0,96,0.03,,,0.08,VWS V14.01,2013-07-25 22:01:00,
2013-07-25 18:11:00,63.1,62.2,29.89,SW,217,1.0,2.0,97,0.03,,,0.08,VWS V14.01,2013-07-25 22:11:00,
2013-07-25 18:21:00,63.0,61.8,29.89,South,182,0.0,2.0,96,0.02,,,0.08,VWS V14.01,2013-07-25 22:21:00,
2013-07-25 18:31:00,63.0,61.8,29.89,WSW,257,0.0,2.0,96,0.02,,,0.08,VWS V14.01,2013-07-25 22:31:00,
2013-07-25 18:41:00,63.0,61.8,29.89,SSE,153,1.0,2.0,96,0.02,,,0.08,VWS V14.01,2013-07-25 22:41:00,
2013-07-25 18:51:00,63.0,61.8,29.89,South,184,0.0,1.0,96,0.01,,,0.08,VWS V14.01,2013-07-25 22:51:00,
2013-07-25 19:01:00,62.8,61.7,29.89,NE,51,1.0,2.0,96,0.01,,,0.08,VWS V14.01,2013-07-25 23:01:00,
2013-07-25 19:11:00,62.8,61.9,29.89,SW,227,0.0,3.0,97,0.01,,,0.09,VWS V14.01,2013-07-25 23:11:00,
2013-07-25 19:21:00,62.8,61.9,29.90,SW,234,0.0,2.0,97,0.01,,,0.09,VWS V14.01,2013-07-25 23:21:00,
2013-07-25 19:31:00,62.8,61.9,29.89,SW,225,0.0,2.0,97,0.01,,,0.09,VWS V14.01,2013-07-25 23:31:00,
2013-07-25 19:41:00,62.7,61.8,29.89,SE,130,0.0,2.0,97,0.01,,,0.09,VWS V14.01,2013-07-25 23:41:00,
2013-07-25 19:51:00,62.7,61.8,29.89,South,191,0.0,2.0,97,0.01,,,0.09,VWS V14.01,2013-07-25 23:51:00,
2013-07-25 20:01:00,62.6,61.7,29.89,SSW,192,1.0,2.0,97,0.01,,,0.09,VWS V14.01,2013-07-26 00:01:00,
2013-07-25 20:11:00,62.6,61.7,29.89,ENE,78,0.0,2.0,97,0.03,,,0.11,VWS V14.01,2013-07-26 00:11:00,
2013-07-25 20:21:00,62.5,61.6,29.89,ENE,78,1.0,2.0,97,0.05,,,0.14,VWS V14.01,2013-07-26 00:21:00,
2013-07-25 20:31:00,62.4,61.5,29.88,NNW,344,1.0,2.0,97,0.08,,,0.17,VWS V14.01,2013-07-26 00:31:00,
2013-07-25 20:41:00,62.2,61.3,29.88,NNW,328,1.0,3.0,97,0.09,,,0.18,VWS V14.01,2013-07-26 00:41:00,
2013-07-25 20:51:00,62.1,61.2,29.87,NNW,328,1.0,3.0,97,0.09,,,0.18,VWS V14.01,2013-07-26 00:51:00,
2013-07-25 21:01:00,62.0,61.4,29.87,NNW,327,0.0,3.0,98,0.09,,,0.18,VWS V14.01,2013-07-26 01:01:00,
2013-07-25 21:11:00,62.1,61.5,29.87,NW,322,2.0,2.0,98,0.09,,,0.18,VWS V14.01,2013-07-26 01:11:00,
2013-07-25 21:21:00,62.1,61.5,29.88,NW,322,1.0,2.0,98,0.07,,,0.18,VWS V14.01,2013-07-26 01:21:00,
2013-07-25 21:31:00,62.1,61.5,29.88,NW,322,0.0,2.0,98,0.04,,,0.18,VWS V14.01,2013-07-26 01:31:00,
2013-07-25 21:41:00,62.1,61.5,29.88,NW,322,0.0,2.0,98,0.01,,,0.18,VWS V14.01,2013-07-26 01:41:00,
2013-07-25 21:51:00,62.1,61.5,29.88,West,267,0.0,4.0,98,0.00,,,0.18,VWS V14.01,2013-07-26 01:51:00,
2013-07-25 22:01:00,62.0,61.4,29.87,NE,39,1.0,5.0,98,0.00,,,0.18,VWS V14.01,2013-07-26 02:01:00,
2013-07-25 22:11:00,62.0,61.4,29.87,NE,39,0.0,2.0,98,0.00,,,0.18,VWS V14.01,2013-07-26 02:11:00,
2013-07-25 22:21:00,61.9,61.3,29.89,East,86,0.0,3.0,98,0.01,,,0.19,VWS V14.01,2013-07-26 02:21:00,
2013-07-25 22:31:00,61.9,61.3,29.88,SW,228,1.0,2.0,98,0.01,,,0.19,VWS V14.01,2013-07-26 02:31:00,
2013-07-25 22:41:00,61.8,61.2,29.88,SW,236,0.0,3.0,98,0.01,,,0.19,VWS V14.01,2013-07-26 02:41:00,
2013-07-25 22:51:00,61.8,61.2,29.88,SW,236,1.0,2.0,98,0.01,,,0.19,VWS V14.01,2013-07-26 02:51:00,
2013-07-25 23:01:00,61.7,61.1,29.87,SW,235,1.0,2.0,98,0.01,,,0.19,VWS V14.01,2013-07-26 03:01:00,
2013-07-25 23:11:00,61.7,61.1,29.87,SW,235,1.0,2.0,98,0.01,,,0.19,VWS V14.01,2013-07-26 03:11:00,
2013-07-25 23:21:00,61.7,61.1,29.88,SW,235,1.0,3.0,98,0.01,,,0.19,VWS V14.01,2013-07-26 03:21:00,
2013-07-25 23:31:00,61.8,61.2,29.88,WSW,244,1.0,2.0,98,0.00,,,0.19,VWS V14.01,2013-07-26 03:31:00,
2013-07-25 23:41:00,61.8,61.2,29.88,West,266,1.0,2.0,98,0.00,,,0.19,VWS V14.01,2013-07-26 03:41:00,
2013-07-25 23:51:00,61.8,61.2,29.89,West,266,0.0,1.0,98,0.00,,,0.19,VWS V14.01,2013-07-26 03:51:00,